createdAt,value
2022-10-02T00:00:16.746Z,74.82
2022-10-02T00:01:27.051Z,74.46
2022-10-02T00:02:40.772Z,74.57
2022-10-02T00:03:42.691Z,74.46
2022-10-02T00:04:57.580Z,74.51
2022-10-02T00:06:00.551Z,74.08
2022-10-02T00:07:03.652Z,74.20
2022-10-02T00:08:05.830Z,73.92
2022-10-02T00:09:07.969Z,73.77
2022-10-02T00:10:14.423Z,73.78
2022-10-02T00:11:25.172Z,73.75
2022-10-02T00:12:26.894Z,73.71
2022-10-02T00:13:34.110Z,73.62
2022-10-02T00:14:36.117Z,73.49
2022-10-02T00:15:37.559Z,73.36
2022-10-02T00:16:42.792Z,73.44
2022-10-02T00:17:45.255Z,73.09
2022-10-02T00:18:46.706Z,73.10
2022-10-02T00:19:51.850Z,73.22
2022-10-02T00:21:16.192Z,73.09
2022-10-02T00:22:17.678Z,73.08
2022-10-02T00:23:48.694Z,73.21
2022-10-02T00:24:50.147Z,72.97
2022-10-02T00:25:56.843Z,73.25
2022-10-02T00:27:04.096Z,73.22
2022-10-02T00:28:24.246Z,73.44
2022-10-02T00:29:28.743Z,73.21
2022-10-02T00:30:31.526Z,73.24
2022-10-02T00:31:38.921Z,73.26
2022-10-02T00:32:46.523Z,73.31
2022-10-02T00:34:06.531Z,73.46
2022-10-02T00:35:26.825Z,73.38
2022-10-02T00:36:46.892Z,73.40
2022-10-02T00:37:54.084Z,73.81
2022-10-02T00:39:00.901Z,73.70
2022-10-02T00:40:20.596Z,73.70
2022-10-02T00:41:31.267Z,73.68
2022-10-02T00:42:39.266Z,73.62
2022-10-02T00:43:59.180Z,73.46
2022-10-02T00:45:16.127Z,73.28
2022-10-02T00:46:23.520Z,73.38
2022-10-02T00:47:34.039Z,73.27
2022-10-02T00:48:35.426Z,73.29
2022-10-02T00:49:36.933Z,73.34
2022-10-02T00:50:38.334Z,73.33
2022-10-02T00:51:55.030Z,73.29
2022-10-02T00:53:05.627Z,73.22
2022-10-02T00:54:36.300Z,72.92
2022-10-02T00:55:56.015Z,73.20
2022-10-02T00:57:00.085Z,73.01
2022-10-02T00:58:08.387Z,73.11
2022-10-02T00:59:16.004Z,73.51
2022-10-02T01:00:18.038Z,73.19
2022-10-02T01:01:20.667Z,73.18
2022-10-02T01:02:31.119Z,73.13
2022-10-02T01:03:39.848Z,73.19
2022-10-02T01:04:41.399Z,73.50
2022-10-02T01:05:42.886Z,73.65
2022-10-02T01:06:44.366Z,73.51
2022-10-02T01:07:46.763Z,73.61
2022-10-02T01:08:48.215Z,73.49
2022-10-02T01:09:49.689Z,73.41
2022-10-02T01:10:51.123Z,73.83
2022-10-02T01:11:52.563Z,73.98
2022-10-02T01:12:54.333Z,73.92
2022-10-02T01:13:55.891Z,73.99
2022-10-02T01:14:57.350Z,73.88
2022-10-02T01:16:00.607Z,73.99
2022-10-02T01:17:02.159Z,73.94
2022-10-02T01:18:03.683Z,74.09
2022-10-02T01:19:05.143Z,74.03
2022-10-02T01:20:07.093Z,73.96
2022-10-02T01:21:11.712Z,74.25
2022-10-02T01:22:33.411Z,74.31
2022-10-02T01:23:34.909Z,74.37
2022-10-02T01:24:48.362Z,74.29
2022-10-02T01:25:50.211Z,74.51
2022-10-02T01:26:53.468Z,74.65
2022-10-02T01:27:55.126Z,74.56
2022-10-02T01:28:56.615Z,74.65
2022-10-02T01:30:02.459Z,74.42
2022-10-02T01:31:07.523Z,74.24
2022-10-02T01:32:09.512Z,74.21
2022-10-02T01:33:11.008Z,74.43
2022-10-02T01:34:12.459Z,74.38
2022-10-02T01:35:13.927Z,74.59
2022-10-02T01:36:15.517Z,74.19
2022-10-02T01:37:16.944Z,74.17
2022-10-02T01:38:18.738Z,73.94
2022-10-02T01:39:20.202Z,74.17
2022-10-02T01:40:24.261Z,74.05
2022-10-02T01:41:25.794Z,73.85
2022-10-02T01:42:27.282Z,73.96
2022-10-02T01:43:29.755Z,74.22
2022-10-02T01:44:31.240Z,74.36
2022-10-02T01:45:35.472Z,74.34
2022-10-02T01:46:41.682Z,74.45
2022-10-02T01:47:54.750Z,74.80
2022-10-02T01:48:59.174Z,74.92
2022-10-02T01:50:03.602Z,74.77
2022-10-02T01:51:28.468Z,74.54
2022-10-02T01:52:35.709Z,74.50
2022-10-02T01:53:44.991Z,74.52
2022-10-02T01:54:46.391Z,74.62
2022-10-02T01:55:47.832Z,74.73
2022-10-02T01:56:55.451Z,74.79
2022-10-02T01:58:01.080Z,74.87
2022-10-02T01:59:11.538Z,74.98
2022-10-02T02:00:14.263Z,74.91
2022-10-02T02:01:24.602Z,74.78
2022-10-02T02:02:31.306Z,75.10
2022-10-02T02:03:50.797Z,75.27
2022-10-02T02:04:57.566Z,75.06
2022-10-02T02:06:09.867Z,74.84
2022-10-02T02:07:13.561Z,74.68
2022-10-02T02:08:23.678Z,74.94
2022-10-02T02:09:31.202Z,74.96
2022-10-02T02:10:38.631Z,74.79
2022-10-02T02:11:41.048Z,75.06
2022-10-02T02:12:43.515Z,75.02
2022-10-02T02:13:56.855Z,75.36
2022-10-02T02:15:00.375Z,75.82
2022-10-02T02:16:04.012Z,75.99
2022-10-02T02:17:15.606Z,76.02
2022-10-02T02:18:20.434Z,75.89
2022-10-02T02:19:23.388Z,76.20
2022-10-02T02:20:26.678Z,76.42
2022-10-02T02:21:29.906Z,76.44
2022-10-02T02:22:33.253Z,76.40
2022-10-02T02:23:35.279Z,76.34
2022-10-02T02:24:37.859Z,76.33
2022-10-02T02:25:40.041Z,76.32
2022-10-02T02:26:43.698Z,76.30
2022-10-02T02:27:46.424Z,75.92
2022-10-02T02:28:49.074Z,76.09
2022-10-02T02:29:50.917Z,76.25
2022-10-02T02:30:52.915Z,76.75
2022-10-02T02:31:58.073Z,76.95
2022-10-02T02:33:01.212Z,76.95
2022-10-02T02:34:03.363Z,76.85
2022-10-02T02:35:06.529Z,76.68
2022-10-02T02:36:09.724Z,76.39
2022-10-02T02:37:13.830Z,76.03
2022-10-02T02:38:18.014Z,76.27
2022-10-02T02:39:35.040Z,76.00
2022-10-02T02:40:37.427Z,76.32
2022-10-02T02:41:40.027Z,76.28
2022-10-02T02:42:42.415Z,76.13
2022-10-02T02:43:48.967Z,76.10
2022-10-02T02:44:53.352Z,76.13
2022-10-02T02:45:55.784Z,75.96
2022-10-02T02:47:11.116Z,76.05
2022-10-02T02:48:16.680Z,75.92
2022-10-02T02:49:18.157Z,76.03
2022-10-02T02:50:22.499Z,75.97
2022-10-02T02:51:26.855Z,75.70
2022-10-02T02:52:33.307Z,75.80
2022-10-02T02:53:35.619Z,76.11
2022-10-02T02:54:37.934Z,76.33
2022-10-02T02:55:44.915Z,76.26
2022-10-02T02:56:46.662Z,76.61
2022-10-02T02:57:57.215Z,76.59
2022-10-02T02:59:00.360Z,76.82
2022-10-02T03:00:02.397Z,76.62
2022-10-02T03:01:03.952Z,76.88
2022-10-02T03:02:05.595Z,76.95
2022-10-02T03:03:07.140Z,77.13
2022-10-02T03:04:11.675Z,77.37
2022-10-02T03:05:13.914Z,77.76
2022-10-02T03:06:15.332Z,78.15
2022-10-02T03:07:17.456Z,78.42
2022-10-02T03:08:28.253Z,78.28
2022-10-02T03:09:30.010Z,78.50
2022-10-02T03:10:31.448Z,78.76
2022-10-02T03:11:36.075Z,78.78
2022-10-02T03:12:40.880Z,78.70
2022-10-02T03:13:57.688Z,78.95
2022-10-02T03:15:22.567Z,78.89
2022-10-02T03:16:26.560Z,79.20
2022-10-02T03:17:31.020Z,79.82
2022-10-02T03:18:41.915Z,79.70
2022-10-02T03:19:43.363Z,80.45
2022-10-02T03:20:48.918Z,80.46
2022-10-02T03:21:50.352Z,80.22
2022-10-02T03:23:00.887Z,79.93
2022-10-02T03:24:13.096Z,79.69
2022-10-02T03:25:24.334Z,79.65
2022-10-02T03:26:34.916Z,79.69
2022-10-02T03:27:41.732Z,79.71
2022-10-02T03:28:55.943Z,79.99
2022-10-02T03:29:58.254Z,79.65
2022-10-02T03:30:59.697Z,79.57
2022-10-02T03:32:01.390Z,79.53
2022-10-02T03:33:03.309Z,79.71
2022-10-02T03:34:04.778Z,79.96
2022-10-02T03:35:07.087Z,79.75
2022-10-02T03:36:10.183Z,79.38
2022-10-02T03:37:11.667Z,79.43
2022-10-02T03:38:13.556Z,79.35
2022-10-02T03:39:30.223Z,78.99
2022-10-02T03:40:31.732Z,78.91
2022-10-02T03:41:33.273Z,78.98
2022-10-02T03:42:34.815Z,79.00
2022-10-02T03:43:36.261Z,78.83
2022-10-02T03:44:37.716Z,78.70
2022-10-02T03:45:51.014Z,78.72
2022-10-02T03:46:53.133Z,78.48
2022-10-02T03:47:54.742Z,78.04
2022-10-02T03:48:56.624Z,78.27
2022-10-02T03:49:58.216Z,78.41
2022-10-02T03:50:59.699Z,78.41
2022-10-02T03:52:01.305Z,77.95
2022-10-02T03:53:02.762Z,78.13
2022-10-02T03:54:06.181Z,78.08
2022-10-02T03:55:32.524Z,78.41
2022-10-02T03:56:39.097Z,78.13
2022-10-02T03:57:40.783Z,77.99
2022-10-02T03:58:43.386Z,78.11
2022-10-02T03:59:46.995Z,77.69
2022-10-02T04:01:07.275Z,77.34
2022-10-02T04:02:15.830Z,77.37
2022-10-02T04:03:21.280Z,77.28
2022-10-02T04:04:23.560Z,77.01
2022-10-02T04:05:28.705Z,76.89
2022-10-02T04:06:43.461Z,76.88
2022-10-02T04:07:48.999Z,76.71
2022-10-02T04:08:53.300Z,76.73
2022-10-02T04:10:02.087Z,76.60
2022-10-02T04:11:05.380Z,76.62
2022-10-02T04:12:10.962Z,76.43
2022-10-02T04:13:21.467Z,76.52
2022-10-02T04:14:24.977Z,76.40
2022-10-02T04:15:49.336Z,76.59
2022-10-02T04:16:52.483Z,76.64
2022-10-02T04:17:58.906Z,76.70
2022-10-02T04:19:11.607Z,76.93
2022-10-02T04:20:15.829Z,76.77
2022-10-02T04:21:24.212Z,76.91
2022-10-02T04:22:46.582Z,77.28
2022-10-02T04:23:59.467Z,77.79
2022-10-02T04:25:05.591Z,78.04
2022-10-02T04:26:13.372Z,77.76
2022-10-02T04:27:35.136Z,78.06
2022-10-02T04:28:40.329Z,77.89
2022-10-02T04:29:43.627Z,77.91
2022-10-02T04:30:45.128Z,77.75
2022-10-02T04:31:48.248Z,77.57
2022-10-02T04:32:49.735Z,77.44
2022-10-02T04:33:51.236Z,77.44
2022-10-02T04:34:52.770Z,77.38
2022-10-02T04:36:13.032Z,77.36
2022-10-02T04:37:20.420Z,77.52
2022-10-02T04:38:24.717Z,77.42
2022-10-02T04:39:29.542Z,77.39
2022-10-02T04:40:50.562Z,77.36
2022-10-02T04:41:58.175Z,77.23
2022-10-02T04:42:59.659Z,77.16
2022-10-02T04:44:04.158Z,77.09
2022-10-02T04:45:17.799Z,76.70
2022-10-02T04:46:39.572Z,76.97
2022-10-02T04:47:41.038Z,76.97
2022-10-02T04:48:51.525Z,77.03
2022-10-02T04:50:11.411Z,77.16
2022-10-02T04:51:31.510Z,77.11
2022-10-02T04:52:45.136Z,76.85
2022-10-02T04:53:55.875Z,76.73
2022-10-02T04:55:00.145Z,77.16
2022-10-02T04:56:04.629Z,77.25
2022-10-02T04:57:14.778Z,77.08
2022-10-02T04:58:35.019Z,76.90
2022-10-02T04:59:42.375Z,77.04
2022-10-02T05:01:10.266Z,76.94
2022-10-02T05:02:20.863Z,76.80
2022-10-02T05:03:32.096Z,76.63
2022-10-02T05:04:42.333Z,76.74
2022-10-02T05:05:43.832Z,76.80
2022-10-02T05:06:45.241Z,76.81
2022-10-02T05:07:49.721Z,76.66
2022-10-02T05:08:51.153Z,76.89
2022-10-02T05:10:01.739Z,76.78
2022-10-02T05:11:22.166Z,76.60
2022-10-02T05:12:23.643Z,76.46
2022-10-02T05:13:34.481Z,76.38
2022-10-02T05:14:54.453Z,76.24
2022-10-02T05:15:55.951Z,76.16
2022-10-02T05:16:57.594Z,76.19
2022-10-02T05:17:59.007Z,76.04
2022-10-02T05:19:00.444Z,76.29
2022-10-02T05:20:22.190Z,76.33
2022-10-02T05:21:42.268Z,76.52
2022-10-02T05:22:55.895Z,76.41
2022-10-02T05:24:03.403Z,76.60
2022-10-02T05:25:04.825Z,76.51
2022-10-02T05:26:09.586Z,76.41
2022-10-02T05:27:33.163Z,76.64
2022-10-02T05:28:53.606Z,76.52
2022-10-02T05:29:55.013Z,76.31
2022-10-02T05:31:13.256Z,76.53
2022-10-02T05:32:15.315Z,76.47
2022-10-02T05:33:17.240Z,76.18
2022-10-02T05:34:18.681Z,76.33
2022-10-02T05:35:35.243Z,76.26
2022-10-02T05:36:57.464Z,76.27
2022-10-02T05:38:21.301Z,76.24
2022-10-02T05:39:24.480Z,76.02
2022-10-02T05:40:25.978Z,76.20
2022-10-02T05:41:27.650Z,76.07
2022-10-02T05:42:45.027Z,76.46
2022-10-02T05:43:47.926Z,76.40
2022-10-02T05:44:50.987Z,76.31
2022-10-02T05:45:53.073Z,76.28
2022-10-02T05:46:57.145Z,76.00
2022-10-02T05:48:03.706Z,76.01
2022-10-02T05:49:14.923Z,75.93
2022-10-02T05:50:20.172Z,75.89
2022-10-02T05:51:30.378Z,76.22
2022-10-02T05:52:40.568Z,76.14
2022-10-02T05:53:57.182Z,75.89
2022-10-02T05:55:17.194Z,76.27
2022-10-02T05:56:18.655Z,76.41
2022-10-02T05:57:35.511Z,76.26
2022-10-02T05:58:38.800Z,76.26
2022-10-02T05:59:45.063Z,76.46
2022-10-02T06:00:56.753Z,76.26
2022-10-02T06:01:58.293Z,76.12
2022-10-02T06:03:18.987Z,76.51
2022-10-02T06:04:26.216Z,76.37
2022-10-02T06:05:37.806Z,76.48
2022-10-02T06:06:46.438Z,76.36
2022-10-02T06:07:49.429Z,76.32
2022-10-02T06:08:52.914Z,76.19
2022-10-02T06:10:05.881Z,76.30
2022-10-02T06:11:08.743Z,76.27
2022-10-02T06:12:13.911Z,76.13
2022-10-02T06:13:15.351Z,76.17
2022-10-02T06:14:35.169Z,76.04
2022-10-02T06:15:52.739Z,76.00
2022-10-02T06:16:55.904Z,76.03
2022-10-02T06:18:03.097Z,76.05
2022-10-02T06:19:07.495Z,75.98
2022-10-02T06:20:17.000Z,76.21
2022-10-02T06:21:23.848Z,76.33
2022-10-02T06:22:26.571Z,76.24
2022-10-02T06:23:30.242Z,76.52
2022-10-02T06:24:34.431Z,76.39
2022-10-02T06:25:35.843Z,76.51
2022-10-02T06:26:51.792Z,76.65
2022-10-02T06:27:59.537Z,76.37
2022-10-02T06:29:05.707Z,76.49
2022-10-02T06:30:10.658Z,76.47
2022-10-02T06:31:30.633Z,76.28
2022-10-02T06:32:50.902Z,76.15
2022-10-02T06:33:52.563Z,76.10
2022-10-02T06:34:54.027Z,76.13
2022-10-02T06:35:58.584Z,76.27
2022-10-02T06:37:00.361Z,76.15
2022-10-02T06:38:04.867Z,76.19
2022-10-02T06:39:06.706Z,76.12
2022-10-02T06:40:27.055Z,76.00
2022-10-02T06:41:30.595Z,76.00
2022-10-02T06:42:37.730Z,76.13
2022-10-02T06:43:45.187Z,76.10
2022-10-02T06:44:51.152Z,76.04
2022-10-02T06:46:08.820Z,76.18
2022-10-02T06:47:34.263Z,76.01
2022-10-02T06:48:57.774Z,76.12
2022-10-02T06:50:16.494Z,75.90
2022-10-02T06:51:27.030Z,75.95
2022-10-02T06:52:28.431Z,75.85
2022-10-02T06:53:32.677Z,75.75
2022-10-02T06:54:53.875Z,75.91
2022-10-02T06:56:01.279Z,75.73
2022-10-02T06:57:19.516Z,75.75
2022-10-02T06:58:40.255Z,75.68
2022-10-02T06:59:49.666Z,75.58
2022-10-02T07:01:10.053Z,75.53
2022-10-02T07:02:23.329Z,75.87
2022-10-02T07:03:30.931Z,75.77
2022-10-02T07:04:58.511Z,76.03
2022-10-02T07:06:20.473Z,76.06
2022-10-02T07:07:37.652Z,76.13
2022-10-02T07:08:58.798Z,76.09
2022-10-02T07:10:03.393Z,76.02
2022-10-02T07:11:23.439Z,75.99
2022-10-02T07:12:51.495Z,76.00
2022-10-02T07:13:53.478Z,76.19
2022-10-02T07:15:00.787Z,76.18
2022-10-02T07:16:14.805Z,76.78
2022-10-02T07:17:34.663Z,76.99
2022-10-02T07:18:36.099Z,76.96
2022-10-02T07:19:56.216Z,76.84
2022-10-02T07:21:01.069Z,76.77
2022-10-02T07:22:26.142Z,76.94
2022-10-02T07:23:35.200Z,76.91
2022-10-02T07:24:36.763Z,76.93
2022-10-02T07:25:48.106Z,76.85
2022-10-02T07:26:52.499Z,76.80
2022-10-02T07:28:03.533Z,76.53
2022-10-02T07:29:14.201Z,76.53
2022-10-02T07:30:16.493Z,76.89
2022-10-02T07:31:23.543Z,76.54
2022-10-02T07:32:28.206Z,76.70
2022-10-02T07:33:48.416Z,76.55
2022-10-02T07:34:54.388Z,76.70
2022-10-02T07:36:14.579Z,76.69
2022-10-02T07:37:28.039Z,77.08
2022-10-02T07:38:44.431Z,76.91
2022-10-02T07:40:06.541Z,77.07
2022-10-02T07:41:14.214Z,77.55
2022-10-02T07:42:18.417Z,77.48
2022-10-02T07:43:38.694Z,77.92
2022-10-02T07:44:50.114Z,78.32
2022-10-02T07:45:54.548Z,78.40
2022-10-02T07:47:04.210Z,78.19
2022-10-02T07:48:26.179Z,78.57
2022-10-02T07:49:46.135Z,78.35
2022-10-02T07:50:50.281Z,78.20
2022-10-02T07:51:55.279Z,78.11
2022-10-02T07:53:01.031Z,78.10
2022-10-02T07:54:08.364Z,78.07
2022-10-02T07:55:16.627Z,78.70
2022-10-02T07:56:22.599Z,78.71
2022-10-02T07:57:36.651Z,78.48
2022-10-02T07:58:39.642Z,78.69
2022-10-02T07:59:43.656Z,78.44
2022-10-02T08:00:48.880Z,78.53
2022-10-02T08:01:50.652Z,78.77
2022-10-02T08:02:57.280Z,78.62
2022-10-02T08:04:00.283Z,79.10
2022-10-02T08:05:02.799Z,79.20
2022-10-02T08:06:04.304Z,79.17
2022-10-02T08:07:06.489Z,79.10
2022-10-02T08:08:21.913Z,79.19
2022-10-02T08:09:36.694Z,78.99
2022-10-02T08:10:38.942Z,78.90
2022-10-02T08:12:06.702Z,78.86
2022-10-02T08:13:11.068Z,79.00
2022-10-02T08:14:12.514Z,79.25
2022-10-02T08:15:15.719Z,79.44
2022-10-02T08:16:17.290Z,79.83
2022-10-02T08:17:37.363Z,79.68
2022-10-02T08:18:40.479Z,79.99
2022-10-02T08:19:45.592Z,79.84
2022-10-02T08:20:47.056Z,79.73
2022-10-02T08:21:49.306Z,79.91
2022-10-02T08:22:52.038Z,80.35
2022-10-02T08:23:58.503Z,80.75
2022-10-02T08:25:02.096Z,80.69
2022-10-02T08:26:05.936Z,80.50
2022-10-02T08:27:12.874Z,80.51
2022-10-02T08:28:20.110Z,80.47
2022-10-02T08:29:24.208Z,80.02
2022-10-02T08:30:25.906Z,80.04
2022-10-02T08:31:27.653Z,79.93
2022-10-02T08:32:34.718Z,79.80
2022-10-02T08:33:36.882Z,79.66
2022-10-02T08:34:38.331Z,79.59
2022-10-02T08:35:42.403Z,79.53
2022-10-02T08:37:02.629Z,79.52
2022-10-02T08:38:16.406Z,79.59
2022-10-02T08:39:36.683Z,79.64
2022-10-02T08:41:05.082Z,79.77
2022-10-02T08:42:06.491Z,79.80
2022-10-02T08:43:08.515Z,79.95
2022-10-02T08:44:09.963Z,79.83
2022-10-02T08:45:17.339Z,79.93
2022-10-02T08:46:37.562Z,79.67
2022-10-02T08:47:47.412Z,79.33
2022-10-02T08:49:07.421Z,79.22
2022-10-02T08:50:33.231Z,79.18
2022-10-02T08:51:34.705Z,79.24
2022-10-02T08:52:54.695Z,79.16
2022-10-02T08:54:07.979Z,79.15
2022-10-02T08:55:21.279Z,79.07
2022-10-02T08:56:34.969Z,78.84
2022-10-02T08:57:48.963Z,78.87
2022-10-02T08:59:09.383Z,78.69
2022-10-02T09:00:19.951Z,78.95
2022-10-02T09:01:24.477Z,78.96
2022-10-02T09:02:27.586Z,79.22
2022-10-02T09:03:38.232Z,79.37
2022-10-02T09:05:00.969Z,79.02
2022-10-02T09:06:11.680Z,79.25
2022-10-02T09:07:31.382Z,79.51
2022-10-02T09:08:35.890Z,79.66
2022-10-02T09:09:37.396Z,79.72
2022-10-02T09:10:46.004Z,79.92
2022-10-02T09:11:53.719Z,79.88
2022-10-02T09:12:58.439Z,80.00
2022-10-02T09:14:20.942Z,80.00
2022-10-02T09:15:40.376Z,79.87
2022-10-02T09:17:00.593Z,80.02
2022-10-02T09:18:18.370Z,79.90
2022-10-02T09:19:34.603Z,80.17
2022-10-02T09:20:40.471Z,80.04
2022-10-02T09:21:56.184Z,80.13
2022-10-02T09:23:06.599Z,80.30
2022-10-02T09:24:17.032Z,80.31
2022-10-02T09:25:22.426Z,80.38
2022-10-02T09:26:35.006Z,80.45
2022-10-02T09:27:51.609Z,80.33
2022-10-02T09:28:53.100Z,80.27
2022-10-02T09:30:00.516Z,80.64
2022-10-02T09:31:34.957Z,80.59
2022-10-02T09:32:48.513Z,80.88
2022-10-02T09:33:49.927Z,80.79
2022-10-02T09:35:03.699Z,80.87
2022-10-02T09:36:10.911Z,80.64
2022-10-02T09:37:31.783Z,80.61
2022-10-02T09:38:53.731Z,80.27
2022-10-02T09:39:55.140Z,80.53
2022-10-02T09:41:02.607Z,80.84
2022-10-02T09:42:14.926Z,80.95
2022-10-02T09:43:34.718Z,80.83
2022-10-02T09:45:01.463Z,80.56
2022-10-02T09:46:10.454Z,80.56
2022-10-02T09:47:20.938Z,80.59
2022-10-02T09:48:25.254Z,80.18
2022-10-02T09:49:35.790Z,80.46
2022-10-02T09:50:50.033Z,80.51
2022-10-02T09:52:10.308Z,80.45
2022-10-02T09:53:26.580Z,80.42
2022-10-02T09:54:33.555Z,80.38
2022-10-02T09:55:42.919Z,80.10
2022-10-02T09:56:47.549Z,80.03
2022-10-02T09:58:00.219Z,79.93
2022-10-02T09:59:24.223Z,79.67
2022-10-02T10:00:27.038Z,79.49
2022-10-02T10:01:37.135Z,79.63
2022-10-02T10:02:38.624Z,79.62
2022-10-02T10:03:42.956Z,79.62
2022-10-02T10:05:05.719Z,79.76
2022-10-02T10:06:17.519Z,79.75
2022-10-02T10:07:37.490Z,79.77
2022-10-02T10:08:42.000Z,79.67
2022-10-02T10:09:52.462Z,79.54
2022-10-02T10:11:22.987Z,79.49
2022-10-02T10:12:27.308Z,79.43
2022-10-02T10:13:34.731Z,79.56
2022-10-02T10:14:54.823Z,79.48
2022-10-02T10:16:13.644Z,79.40
2022-10-02T10:17:24.163Z,80.08
2022-10-02T10:18:44.038Z,80.10
2022-10-02T10:19:51.350Z,79.79
2022-10-02T10:21:11.679Z,79.61
2022-10-02T10:22:31.982Z,79.96
2022-10-02T10:23:41.459Z,80.18
2022-10-02T10:24:48.577Z,80.03
2022-10-02T10:25:59.228Z,79.83
2022-10-02T10:27:16.874Z,80.01
2022-10-02T10:28:18.363Z,80.10
2022-10-02T10:29:39.967Z,80.04
2022-10-02T10:31:02.169Z,79.94
2022-10-02T10:32:23.265Z,80.08
2022-10-02T10:33:28.016Z,80.00
2022-10-02T10:34:29.445Z,80.10
2022-10-02T10:35:34.037Z,80.01
2022-10-02T10:37:06.331Z,80.29
2022-10-02T10:38:29.424Z,79.96
2022-10-02T10:39:49.424Z,79.87
2022-10-02T10:41:11.070Z,79.74
2022-10-02T10:42:17.999Z,80.16
2022-10-02T10:43:19.503Z,80.05
2022-10-02T10:44:29.779Z,80.08
2022-10-02T10:45:35.135Z,80.06
2022-10-02T10:46:36.711Z,79.69
2022-10-02T10:47:43.771Z,79.98
2022-10-02T10:48:52.938Z,79.81
2022-10-02T10:50:03.744Z,79.78
2022-10-02T10:51:19.555Z,79.83
2022-10-02T10:52:30.186Z,79.95
2022-10-02T10:53:36.568Z,79.69
2022-10-02T10:54:57.336Z,79.75
2022-10-02T10:56:10.783Z,79.55
2022-10-02T10:57:31.052Z,79.69
2022-10-02T10:58:38.213Z,80.04
2022-10-02T10:59:42.402Z,79.91
2022-10-02T11:01:04.209Z,79.83
2022-10-02T11:02:05.755Z,79.61
2022-10-02T11:03:07.601Z,79.66
2022-10-02T11:04:27.949Z,79.22
2022-10-02T11:05:36.489Z,79.37
2022-10-02T11:06:37.992Z,79.40
2022-10-02T11:07:54.856Z,79.30
2022-10-02T11:09:15.338Z,79.36
2022-10-02T11:10:27.979Z,79.30
2022-10-02T11:11:29.399Z,79.27
2022-10-02T11:12:49.629Z,79.06
2022-10-02T11:14:09.219Z,79.15
2022-10-02T11:15:25.695Z,79.18
2022-10-02T11:16:27.229Z,78.93
2022-10-02T11:17:33.175Z,79.15
2022-10-02T11:18:58.831Z,79.09
2022-10-02T11:20:03.359Z,79.24
2022-10-02T11:21:13.887Z,78.90
2022-10-02T11:22:22.362Z,79.00
2022-10-02T11:23:26.443Z,78.87
2022-10-02T11:24:32.659Z,78.95
2022-10-02T11:25:38.330Z,78.96
2022-10-02T11:27:00.051Z,78.81
2022-10-02T11:28:07.293Z,78.71
2022-10-02T11:29:34.704Z,78.59
2022-10-02T11:30:42.049Z,78.40
2022-10-02T11:31:44.501Z,78.57
2022-10-02T11:33:01.195Z,78.52
2022-10-02T11:34:24.979Z,78.35
2022-10-02T11:35:35.886Z,78.08
2022-10-02T11:36:43.084Z,78.02
2022-10-02T11:37:53.256Z,78.15
2022-10-02T11:39:04.606Z,78.19
2022-10-02T11:40:12.942Z,78.36
2022-10-02T11:41:16.944Z,78.04
2022-10-02T11:42:24.627Z,77.90
2022-10-02T11:43:27.545Z,77.87
2022-10-02T11:44:43.438Z,78.13
2022-10-02T11:46:03.351Z,78.02
2022-10-02T11:47:24.506Z,78.29
2022-10-02T11:48:33.173Z,78.37
2022-10-02T11:49:38.430Z,78.45
2022-10-02T11:50:42.350Z,78.24
2022-10-02T11:51:55.970Z,78.34
2022-10-02T11:53:04.132Z,78.23
2022-10-02T11:54:24.426Z,78.23
2022-10-02T11:55:25.899Z,77.79
2022-10-02T11:56:57.461Z,77.97
2022-10-02T11:58:08.739Z,78.09
2022-10-02T11:59:30.541Z,77.89
2022-10-02T12:00:40.923Z,77.89
2022-10-02T12:02:04.840Z,77.52
2022-10-02T12:03:12.109Z,77.33
2022-10-02T12:04:18.614Z,77.31
2022-10-02T12:05:24.039Z,77.42
2022-10-02T12:06:34.675Z,77.55
2022-10-02T12:07:38.855Z,77.39
2022-10-02T12:08:58.866Z,77.50
2022-10-02T12:10:00.310Z,77.53
2022-10-02T12:11:05.400Z,77.60
2022-10-02T12:12:27.869Z,77.68
2022-10-02T12:13:48.989Z,77.78
2022-10-02T12:15:04.974Z,77.52
2022-10-02T12:16:15.715Z,77.65
2022-10-02T12:17:17.115Z,77.48
2022-10-02T12:18:24.339Z,77.61
2022-10-02T12:19:31.829Z,77.42
2022-10-02T12:20:58.075Z,77.43
2022-10-02T12:22:24.610Z,77.51
2022-10-02T12:23:50.283Z,77.49
2022-10-02T12:25:14.283Z,77.47
2022-10-02T12:26:34.276Z,78.15
2022-10-02T12:27:56.242Z,78.17
2022-10-02T12:28:57.987Z,78.17
2022-10-02T12:30:10.566Z,78.31
2022-10-02T12:31:12.026Z,78.22
2022-10-02T12:32:26.399Z,78.51
2022-10-02T12:33:32.267Z,78.25
2022-10-02T12:34:42.923Z,78.35
2022-10-02T12:35:44.346Z,78.06
2022-10-02T12:37:06.147Z,78.20
2022-10-02T12:38:07.583Z,78.15
2022-10-02T12:39:25.355Z,77.93
2022-10-02T12:41:03.135Z,77.90
2022-10-02T12:42:13.799Z,77.84
2022-10-02T12:43:33.774Z,77.95
2022-10-02T12:44:39.264Z,77.78
2022-10-02T12:45:49.672Z,77.69
2022-10-02T12:47:03.085Z,77.73
2022-10-02T12:48:07.148Z,77.55
2022-10-02T12:49:14.409Z,77.53
2022-10-02T12:50:21.946Z,77.74
2022-10-02T12:51:46.489Z,77.60
2022-10-02T12:53:08.527Z,77.86
2022-10-02T12:54:28.218Z,77.42
2022-10-02T12:55:46.478Z,77.41
2022-10-02T12:57:06.416Z,77.50
2022-10-02T12:58:23.563Z,77.57
2022-10-02T12:59:30.915Z,77.61
2022-10-02T13:00:35.034Z,77.42
2022-10-02T13:01:46.959Z,77.32
2022-10-02T13:03:07.270Z,77.34
2022-10-02T13:04:16.522Z,77.26
2022-10-02T13:05:18.086Z,77.17
2022-10-02T13:06:38.185Z,77.18
2022-10-02T13:07:58.247Z,77.25
2022-10-02T13:09:08.674Z,77.12
2022-10-02T13:10:15.950Z,77.10
2022-10-02T13:11:20.750Z,76.35
2022-10-02T13:12:22.192Z,76.85
2022-10-02T13:13:36.101Z,77.02
2022-10-02T13:14:48.557Z,76.87
2022-10-02T13:15:59.043Z,76.69
2022-10-02T13:17:19.361Z,76.28
2022-10-02T13:18:20.795Z,76.43
2022-10-02T13:19:41.219Z,76.79
2022-10-02T13:20:45.716Z,76.79
2022-10-02T13:22:16.339Z,76.63
2022-10-02T13:23:39.796Z,76.73
2022-10-02T13:25:01.555Z,76.59
2022-10-02T13:26:15.819Z,76.40
2022-10-02T13:27:20.319Z,76.54
2022-10-02T13:28:33.815Z,76.51
2022-10-02T13:29:40.534Z,76.57
2022-10-02T13:31:02.587Z,76.68
2022-10-02T13:32:04.068Z,76.57
2022-10-02T13:33:16.354Z,76.73
2022-10-02T13:34:29.608Z,76.63
2022-10-02T13:35:49.677Z,76.85
2022-10-02T13:37:00.389Z,76.79
2022-10-02T13:38:20.194Z,76.79
2022-10-02T13:39:27.580Z,76.64
2022-10-02T13:40:29.055Z,76.20
2022-10-02T13:41:45.721Z,76.30
2022-10-02T13:43:04.285Z,76.30
2022-10-02T13:44:14.678Z,76.59
2022-10-02T13:45:18.348Z,76.50
2022-10-02T13:46:32.057Z,76.66
2022-10-02T13:47:40.591Z,76.81
2022-10-02T13:49:00.295Z,76.67
2022-10-02T13:50:16.763Z,76.91
2022-10-02T13:51:20.477Z,76.86
2022-10-02T13:52:30.939Z,76.92
2022-10-02T13:53:32.365Z,76.82
2022-10-02T13:54:34.567Z,76.90
2022-10-02T13:55:46.974Z,76.80
2022-10-02T13:56:52.482Z,76.73
2022-10-02T13:58:12.965Z,76.45
2022-10-02T13:59:23.228Z,76.63
2022-10-02T14:00:37.320Z,76.71
2022-10-02T14:01:39.299Z,76.77
2022-10-02T14:02:46.923Z,76.59
2022-10-02T14:03:57.352Z,76.72
2022-10-02T14:05:14.177Z,76.60
2022-10-02T14:06:27.140Z,76.73
2022-10-02T14:07:43.654Z,76.79
2022-10-02T14:08:52.170Z,76.67
2022-10-02T14:09:56.359Z,76.67
2022-10-02T14:11:16.442Z,76.64
2022-10-02T14:12:27.696Z,76.73
2022-10-02T14:13:29.168Z,77.05
2022-10-02T14:14:48.950Z,77.12
2022-10-02T14:15:53.247Z,77.23
2022-10-02T14:17:00.810Z,77.17
2022-10-02T14:18:05.491Z,77.21
2022-10-02T14:19:13.685Z,77.35
2022-10-02T14:20:15.336Z,77.26
2022-10-02T14:21:22.707Z,77.25
2022-10-02T14:22:24.118Z,77.17
2022-10-02T14:23:34.871Z,77.25
2022-10-02T14:24:54.660Z,77.16
2022-10-02T14:26:14.946Z,77.05
2022-10-02T14:27:36.643Z,77.18
2022-10-02T14:28:40.713Z,77.13
2022-10-02T14:29:48.476Z,76.99
2022-10-02T14:31:08.507Z,77.05
2022-10-02T14:32:25.351Z,77.06
2022-10-02T14:33:36.287Z,77.16
2022-10-02T14:34:57.962Z,77.31
2022-10-02T14:36:07.552Z,77.34
2022-10-02T14:37:27.383Z,77.29
2022-10-02T14:38:28.863Z,77.34
2022-10-02T14:39:49.063Z,77.42
2022-10-02T14:40:54.204Z,77.20
2022-10-02T14:42:01.429Z,76.95
2022-10-02T14:43:07.622Z,77.07
2022-10-02T14:44:14.962Z,77.10
2022-10-02T14:45:22.680Z,77.25
2022-10-02T14:46:35.991Z,77.04
2022-10-02T14:47:52.764Z,77.01
2022-10-02T14:48:54.350Z,77.21
2022-10-02T14:49:58.435Z,77.12
2022-10-02T14:51:05.620Z,77.26
2022-10-02T14:52:07.058Z,77.09
2022-10-02T14:53:11.424Z,77.06
2022-10-02T14:54:19.391Z,77.10